Time;durP1;ratioP1;P1;durP2;ratioP2;P2;SDS_P1;SDS_P2;PMS_P1;PMS_P2;Temp;Humidity;BMP_temperature;BMP_pressure;BME280_temperature;BME280_humidity;BME280_pressure;Samples;Min_cycle;Max_cycle;Signal;HPM_P1;HPM_P2
2022/09/24 00:07:47;;;;;;;12.40;6.13;;;12.80;99.90;;;;;;21087150;28;20040;-84
2022/09/24 00:17:48;;;;;;;12.63;6.65;;;12.70;99.90;;;;;;21086860;28;20109;-87
2022/09/24 00:27:50;;;;;;;11.27;5.47;;;12.50;99.90;;;;;;21094727;28;20040;-84
2022/09/24 00:37:51;;;;;;;10.98;5.80;;;12.50;99.90;;;;;;21094303;28;20051;-85
2022/09/24 00:47:53;;;;;;;10.23;6.60;;;12.70;99.90;;;;;;21089650;28;20036;-83
2022/09/24 00:57:57;;;;;;;15.43;6.53;;;12.50;99.90;;;;;;21070572;28;20046;-82
2022/09/24 01:07:59;;;;;;;9.82;6.93;;;12.50;99.90;;;;;;21089667;28;20032;-82
2022/09/24 01:18:25;;;;;;;13.25;6.68;;;12.40;99.90;;;;;;21089085;28;20044;-83
2022/09/24 01:28:38;;;;;;;11.10;7.43;;;12.50;99.90;;;;;;21072074;28;20040;-82
2022/09/24 01:38:43;;;;;;;11.52;6.93;;;12.40;99.90;;;;;;21083665;28;20047;-83
2022/09/24 01:48:44;;;;;;;12.32;7.40;;;12.60;99.90;;;;;;21091561;28;20154;-82
2022/09/24 01:59:21;;;;;;;14.27;7.07;;;12.60;99.90;;;;;;21089823;28;20151;-82
2022/09/24 02:09:37;;;;;;;14.82;8.55;;;12.60;99.90;;;;;;21090590;28;20043;-83
2022/09/24 02:19:40;;;;;;;14.02;7.25;;;12.50;99.90;;;;;;21090136;28;20040;-82
2022/09/24 02:29:41;;;;;;;16.30;6.53;;;12.40;99.90;;;;;;21086463;28;20428;-82
2022/09/24 02:39:43;;;;;;;8.57;6.50;;;12.40;99.90;;;;;;21080081;28;20051;-82
2022/09/24 02:49:43;;;;;;;10.35;6.20;;;12.40;99.90;;;;;;21096988;28;20401;-84
2022/09/24 02:59:45;;;;;;;14.17;6.57;;;12.20;99.90;;;;;;21097063;28;20491;-84
2022/09/24 03:09:46;;;;;;;;;;;12.10;99.90;;;;;;21095958;28;20135;-84
2022/09/24 03:19:47;;;;;;;10.97;7.27;;;12.10;99.90;;;;;;21078008;28;19919;-84
2022/09/24 03:40:07;;;;;;;13.43;7.22;;;12.20;99.90;;;;;;21092719;28;20056;-84
2022/09/24 03:50:11;;;;;;;17.83;8.73;;;12.20;99.90;;;;;;21094252;28;20122;-85
2022/09/24 04:00:12;;;;;;;17.73;9.55;;;12.30;99.90;;;;;;21073405;28;20810;-85
2022/09/24 04:10:13;;;;;;;16.90;8.80;;;12.40;99.90;;;;;;21090870;28;20454;-83
2022/09/24 04:20:14;;;;;;;14.20;9.30;;;12.40;99.90;;;;;;21087346;28;20097;-82
2022/09/24 04:30:15;;;;;;;15.47;9.00;;;12.50;99.90;;;;;;21071833;28;20468;-79
2022/09/24 04:40:16;;;;;;;13.50;8.93;;;12.40;99.90;;;;;;21084130;28;20044;-80
2022/09/24 04:50:18;;;;;;;;;;;12.40;99.90;;;;;;21101144;28;20048;-81
2022/09/24 05:00:19;;;;;;;17.23;9.20;;;12.40;99.90;;;;;;21084868;28;19973;-82
2022/09/24 05:10:20;;;;;;;17.02;10.75;;;12.40;99.90;;;;;;21101760;28;20043;-82
2022/09/24 05:20:21;;;;;;;17.00;10.43;;;12.40;99.90;;;;;;21118106;28;20109;-81
2022/09/24 05:30:23;;;;;;;16.13;9.03;;;12.50;99.90;;;;;;21114040;28;20038;-80
2022/09/24 05:50:44;;;;;;;12.60;9.70;;;12.50;99.90;;;;;;21112078;28;20040;-87
2022/09/24 06:00:45;;;;;;;16.60;9.50;;;12.50;99.90;;;;;;21115536;28;20051;-86
2022/09/24 06:10:46;;;;;;;12.97;8.73;;;12.50;99.90;;;;;;21099940;28;20040;-88
2022/09/24 06:20:47;;;;;;;16.85;10.13;;;12.60;99.90;;;;;;21096077;28;20066;-81
2022/09/24 06:30:48;;;;;;;16.30;9.57;;;12.50;99.90;;;;;;21086760;28;20036;-80
2022/09/24 06:40:49;;;;;;;11.23;7.43;;;12.40;99.90;;;;;;21089690;28;20076;-81
2022/09/24 06:50:50;;;;;;;8.90;5.97;;;12.50;99.90;;;;;;21093237;28;20036;-80
2022/09/24 07:00:58;;;;;;;7.00;4.80;;;13.10;99.90;;;;;;21093558;28;20048;-79
2022/09/24 07:10:59;;;;;;;9.43;4.43;;;13.50;99.90;;;;;;21070007;28;20040;-86
2022/09/24 07:21:00;;;;;;;6.13;4.13;;;13.70;99.90;;;;;;21077428;28;20340;-86
2022/09/24 07:31:01;;;;;;;7.30;4.83;;;13.90;99.90;;;;;;21173335;22;20048;-82
2022/09/24 07:41:03;;;;;;;8.53;4.20;;;13.80;99.90;;;;;;21189470;28;20095;-84
2022/09/24 07:51:08;;;;;;;7.55;5.78;;;13.90;99.90;;;;;;21171848;28;20085;-79
2022/09/24 08:01:09;;;;;;;9.82;6.13;;;13.80;99.90;;;;;;21174957;28;20035;-79
2022/09/24 08:11:12;;;;;;;8.27;4.93;;;13.60;99.90;;;;;;21167797;28;20122;-78
2022/09/24 08:21:14;;;;;;;7.95;5.97;;;13.70;99.90;;;;;;21185280;28;20047;-79
2022/09/24 08:31:15;;;;;;;7.57;4.60;;;13.70;99.90;;;;;;21182557;28;20044;-78
2022/09/24 08:41:38;;;;;;;10.13;5.20;;;13.80;99.90;;;;;;21181770;28;20066;-78
2022/09/24 08:51:50;;;;;;;7.95;4.55;;;13.90;99.90;;;;;;21164898;28;20110;-78
2022/09/24 09:02:26;;;;;;;4.87;3.50;;;14.00;99.90;;;;;;21149704;28;20189;-79
2022/09/24 09:12:34;;;;;;;5.88;4.15;;;14.20;99.90;;;;;;21151575;28;20044;-78
2022/09/24 09:22:42;;;;;;;4.88;3.53;;;14.60;99.90;;;;;;21146118;28;20059;-79
2022/09/24 09:32:46;;;;;;;6.78;3.65;;;14.80;99.90;;;;;;21087262;28;20059;-78
2022/09/24 09:42:46;;;;;;;3.33;2.80;;;15.00;99.90;;;;;;21091625;28;20090;-78
2022/09/24 09:52:47;;;;;;;8.20;4.27;;;14.80;99.90;;;;;;21094017;28;20075;-79
2022/09/24 10:02:52;;;;;;;6.20;3.60;;;14.80;99.90;;;;;;21102661;28;20466;-80
2022/09/24 10:13:06;;;;;;;7.32;3.65;;;14.60;99.90;;;;;;21110473;28;20048;-79
2022/09/24 10:23:32;;;;;;;6.78;4.18;;;14.60;99.90;;;;;;21090281;28;20036;-78
2022/09/24 10:33:42;;;;;;;6.93;4.15;;;14.70;99.90;;;;;;21109153;28;20036;-80
2022/09/24 10:43:51;;;;;;;5.97;3.58;;;14.80;99.90;;;;;;21109068;28;20508;-80
2022/09/24 10:54:40;;;;;;;6.57;3.17;;;14.70;99.90;;;;;;21095220;28;20043;-82
2022/09/24 11:04:50;;;;;;;3.15;2.10;;;14.90;99.90;;;;;;21084597;28;20040;-80
2022/09/24 11:15:18;;;;;;;2.60;2.03;;;15.00;99.90;;;;;;21107113;28;20051;-79
2022/09/24 11:26:00;;;;;;;3.03;2.25;;;15.30;99.90;;;;;;21086102;28;20040;-79
2022/09/24 11:36:14;;;;;;;4.63;2.60;;;15.50;99.90;;;;;;21092739;28;20040;-80
2022/09/24 11:46:34;;;;;;;3.78;2.90;;;15.40;99.90;;;;;;21104923;28;20036;-81
2022/09/24 11:56:46;;;;;;;4.57;2.65;;;15.20;99.90;;;;;;21097334;28;20153;-81
2022/09/24 12:06:57;;;;;;;3.38;2.08;;;15.00;99.90;;;;;;21098041;28;20036;-81
2022/09/24 12:17:06;;;;;;;4.63;2.42;;;14.90;99.90;;;;;;21085591;28;20437;-82
2022/09/24 12:27:12;;;;;;;4.78;2.90;;;14.90;99.90;;;;;;21074830;28;20055;-82
2022/09/24 12:37:17;;;;;;;3.47;2.28;;;15.20;99.90;;;;;;21049592;28;20064;-82
2022/09/24 12:47:25;;;;;;;4.45;1.92;;;15.10;99.90;;;;;;21050981;28;20052;-81
2022/09/24 12:57:36;;;;;;;3.17;2.13;;;15.10;99.90;;;;;;21046073;28;20087;-82
2022/09/24 13:07:39;;;;;;;4.05;1.20;;;15.60;99.90;;;;;;21064035;28;20378;-81
2022/09/24 13:17:40;;;;;;;4.00;1.30;;;16.40;99.90;;;;;;21069976;28;20028;-82
2022/09/24 13:27:42;;;;;;;1.60;1.20;;;17.40;99.90;;;;;;21099784;22;20082;-79
2022/09/24 13:38:06;;;;;;;2.70;1.60;;;17.40;99.90;;;;;;21092692;28;20055;-78
2022/09/24 13:48:34;;;;;;;4.07;1.60;;;17.30;99.90;;;;;;21078128;28;20101;-78
2022/09/24 13:58:37;;;;;;;4.25;1.90;;;17.70;99.90;;;;;;21074213;28;20090;-77
2022/09/24 14:08:43;;;;;;;3.53;1.88;;;17.10;99.90;;;;;;21063961;28;20047;-78
2022/09/24 14:18:45;;;;;;;2.88;1.88;;;16.90;99.90;;;;;;21071334;28;20032;-76
2022/09/24 14:28:46;;;;;;;;;;;16.50;99.90;;;;;;21051010;28;20036;-77
2022/09/24 14:39:02;;;;;;;3.30;1.80;;;16.10;99.90;;;;;;21043968;28;19915;-78
2022/09/24 14:49:17;;;;;;;7.07;1.80;;;16.00;99.90;;;;;;21052913;28;20636;-77
2022/09/24 14:59:29;;;;;;;4.15;2.08;;;15.90;99.90;;;;;;21069709;28;20040;-77
2022/09/24 15:09:31;;;;;;;3.88;1.98;;;15.70;99.90;;;;;;21059470;28;20423;-78
2022/09/24 15:19:33;;;;;;;3.55;2.20;;;15.50;99.90;;;;;;21023202;28;20075;-78
2022/09/24 15:29:34;;;;;;;2.85;2.08;;;15.30;99.90;;;;;;21071316;28;20036;-78
2022/09/24 15:39:35;;;;;;;4.53;2.10;;;15.30;99.90;;;;;;21098872;28;20043;-78
2022/09/24 15:49:35;;;;;;;5.80;3.23;;;15.20;99.90;;;;;;21098277;28;20040;-78
2022/09/24 15:59:36;;;;;;;3.90;2.77;;;15.10;99.90;;;;;;21085839;28;20505;-78
2022/09/24 16:09:37;;;;;;;6.80;3.40;;;15.10;99.90;;;;;;21086116;28;20040;-77
2022/09/24 16:19:38;;;;;;;4.83;3.40;;;14.80;99.90;;;;;;21092031;28;20035;-78
2022/09/24 16:29:39;;;;;;;7.57;3.50;;;14.70;99.90;;;;;;21084680;28;20032;-78
2022/09/24 16:39:40;;;;;;;10.57;7.07;;;14.50;99.90;;;;;;21010441;28;20037;-79
2022/09/24 16:49:41;;;;;;;4.93;3.13;;;14.40;99.90;;;;;;21033839;28;20525;-78
2022/09/24 16:59:42;;;;;;;10.57;4.82;;;14.40;99.90;;;;;;21023137;28;20068;-78
2022/09/24 17:20:03;;;;;;;7.03;4.03;;;14.10;99.90;;;;;;21045827;28;20043;-78
2022/09/24 17:30:04;;;;;;;;;;;13.70;99.90;;;;;;21042295;28;20048;-78
2022/09/24 17:40:06;;;;;;;8.73;4.10;;;13.60;99.90;;;;;;21027029;28;19908;-77
2022/09/24 17:50:08;;;;;;;8.23;3.87;;;13.70;99.90;;;;;;21017415;28;20043;-77
2022/09/24 18:00:10;;;;;;;5.63;3.60;;;13.50;99.90;;;;;;21018061;28;20037;-77
2022/09/24 18:10:12;;;;;;;9.20;3.67;;;13.60;99.90;;;;;;21020107;28;20066;-78
2022/09/24 18:20:13;;;;;;;12.90;4.70;;;13.40;99.90;;;;;;21019488;28;20036;-77
2022/09/24 18:30:14;;;;;;;9.63;4.50;;;13.30;99.90;;;;;;21013733;28;20529;-78
2022/09/24 18:40:15;;;;;;;6.53;4.00;;;13.00;99.90;;;;;;21010758;28;20041;-77
2022/09/24 18:50:16;;;;;;;15.97;8.33;;;12.70;99.90;;;;;;21012960;28;20545;-77
2022/09/24 19:10:36;;;;;;;12.85;6.30;;;12.50;99.90;;;;;;21011743;28;20041;-78
2022/09/24 19:20:38;;;;;;;8.53;4.37;;;12.10;99.90;;;;;;20994714;28;20038;-78
2022/09/24 19:30:44;;;;;;;7.40;3.58;;;11.80;99.90;;;;;;21016741;28;20098;-79
2022/09/24 21:01:19;;;;;;;9.35;4.30;;;10.40;99.90;;;;;;20749104;28;20050;-78
2022/09/24 21:12:56;;;;;;;7.47;4.50;;;9.90;99.90;;;;;;20888763;23;20052;-77
2022/09/24 21:57:50;;;;;;;10.07;5.78;;;9.50;99.90;;;;;;20306901;29;20035;-79
2022/09/24 22:07:51;;;;;;;14.37;4.10;;;9.70;99.90;;;;;;20499910;28;20079;-79
2022/09/24 22:17:51;;;;;;;6.03;3.40;;;9.30;99.90;;;;;;20687437;28;20102;-78
2022/09/24 22:27:53;;;;;;;7.33;4.07;;;9.40;99.90;;;;;;20963002;23;20044;-82
2022/09/24 22:37:55;;;;;;;5.40;3.65;;;9.30;99.90;;;;;;21015071;28;20111;-86
2022/09/24 22:47:58;;;;;;;8.57;3.88;;;9.20;99.90;;;;;;20994260;28;20045;-82
2022/09/24 22:57:58;;;;;;;5.30;3.55;;;9.40;99.90;;;;;;21000026;28;20043;-84
2022/09/24 23:08:00;;;;;;;9.37;3.50;;;9.30;99.90;;;;;;21016456;28;20033;-83
2022/09/24 23:18:00;;;;;;;10.02;4.20;;;9.20;99.90;;;;;;20987445;28;20036;-84
2022/09/24 23:28:01;;;;;;;8.03;3.67;;;9.10;99.90;;;;;;21014631;28;20132;-82
2022/09/24 23:38:02;;;;;;;7.07;4.27;;;9.00;99.90;;;;;;21005705;28;20118;-84
2022/09/24 23:48:04;;;;;;;9.87;3.60;;;9.20;99.90;;;;;;21014672;28;20033;-84
2022/09/24 23:58:05;;;;;;;6.38;3.88;;;9.20;99.90;;;;;;21021667;28;20420;-87
